createdAt,value
2023-05-16T00:00:20.033Z,0.10
2023-05-16T00:01:19.289Z,0.14
2023-05-16T00:01:53.342Z,0.16
2023-05-16T00:02:33.616Z,0.09
2023-05-16T00:03:14.565Z,0.10
2023-05-16T00:03:54.369Z,0.10
2023-05-16T00:04:35.602Z,0.10
2023-05-16T00:05:17.264Z,0.10
2023-05-16T00:06:11.226Z,0.10
2023-05-16T00:07:05.239Z,0.10
2023-05-16T00:07:54.235Z,0.09
2023-05-16T00:08:28.401Z,0.10
2023-05-16T00:09:15.246Z,0.11
2023-05-16T00:09:49.327Z,0.10
2023-05-16T00:10:36.220Z,0.09
2023-05-16T00:11:10.391Z,0.10
2023-05-16T00:11:58.246Z,0.10
2023-05-16T00:12:33.074Z,0.10
2023-05-16T00:13:13.259Z,0.10
2023-05-16T00:13:53.385Z,0.10
2023-05-16T00:14:34.234Z,0.10
2023-05-16T00:15:16.647Z,0.10
2023-05-16T00:15:56.256Z,0.10
2023-05-16T00:16:37.062Z,0.10
2023-05-16T00:17:18.236Z,0.10
2023-05-16T00:18:01.294Z,0.10
2023-05-16T00:18:45.330Z,0.10
2023-05-16T00:19:26.669Z,0.10
2023-05-16T00:20:06.209Z,0.12
2023-05-16T00:20:46.338Z,0.10
2023-05-16T00:21:26.213Z,0.10
2023-05-16T00:22:06.433Z,0.10
2023-05-16T00:22:47.240Z,0.10
2023-05-16T00:23:27.314Z,0.11
2023-05-16T00:24:10.249Z,0.10
2023-05-16T00:24:50.351Z,0.10
2023-05-16T00:25:31.235Z,0.15
2023-05-16T00:26:11.360Z,0.10
2023-05-16T00:26:51.207Z,0.10
2023-05-16T00:27:31.349Z,0.10
2023-05-16T00:28:12.230Z,0.10
2023-05-16T00:28:52.330Z,0.10
2023-05-16T00:29:33.262Z,0.10
2023-05-16T00:30:14.367Z,0.10
2023-05-16T00:30:55.258Z,0.10
2023-05-16T00:31:35.659Z,0.10
2023-05-16T00:32:16.507Z,0.10
2023-05-16T00:32:56.527Z,0.10
2023-05-16T00:33:37.207Z,0.10
2023-05-16T00:34:17.430Z,0.06
2023-05-16T00:34:57.267Z,0.04
2023-05-16T00:35:37.363Z,0.10
2023-05-16T00:36:22.971Z,0.10
2023-05-16T00:37:07.356Z,0.10
2023-05-16T00:37:48.219Z,0.10
2023-05-16T00:38:28.508Z,0.10
2023-05-16T00:39:08.221Z,0.10
2023-05-16T00:39:49.923Z,0.10
2023-05-16T00:40:31.227Z,0.11
2023-05-16T00:41:11.296Z,0.10
2023-05-16T00:41:52.266Z,0.10
2023-05-16T00:42:32.443Z,0.10
2023-05-16T00:43:12.238Z,0.10
2023-05-16T00:43:52.368Z,0.10
2023-05-16T00:44:33.192Z,0.10
2023-05-16T00:45:14.335Z,0.10
2023-05-16T00:45:54.344Z,0.10
2023-05-16T00:46:34.377Z,0.06
2023-05-16T00:47:14.204Z,0.10
2023-05-16T00:47:55.463Z,0.10
2023-05-16T00:48:36.203Z,0.10
2023-05-16T00:49:19.384Z,0.10
2023-05-16T00:50:00.247Z,0.10
2023-05-16T00:50:41.318Z,0.10
2023-05-16T00:51:21.220Z,0.10
2023-05-16T00:52:01.326Z,0.10
2023-05-16T00:52:42.191Z,0.10
2023-05-16T00:53:26.308Z,0.10
2023-05-16T00:54:07.224Z,0.10
2023-05-16T00:54:47.317Z,0.10
2023-05-16T00:55:28.193Z,0.10
2023-05-16T00:56:09.334Z,0.10
2023-05-16T00:56:50.225Z,0.10
2023-05-16T00:57:30.406Z,0.10
2023-05-16T00:58:12.186Z,0.10
2023-05-16T00:58:52.271Z,0.10
2023-05-16T00:59:33.214Z,0.10
2023-05-16T01:00:19.836Z,0.10
2023-05-16T01:01:01.235Z,0.10
2023-05-16T01:01:42.437Z,0.10
2023-05-16T01:02:23.250Z,0.10
2023-05-16T01:03:04.759Z,0.10
2023-05-16T01:03:46.308Z,0.10
2023-05-16T01:04:26.497Z,0.10
2023-05-16T01:05:08.253Z,0.10
2023-05-16T01:05:49.814Z,0.10
2023-05-16T01:06:30.178Z,0.10
2023-05-16T01:07:10.434Z,0.10
2023-05-16T01:07:50.299Z,0.10
2023-05-16T01:08:30.313Z,0.10
2023-05-16T01:09:11.220Z,0.10
2023-05-16T01:09:51.328Z,0.10
2023-05-16T01:10:33.175Z,0.10
2023-05-16T01:11:29.344Z,0.11
2023-05-16T01:12:23.181Z,0.10
2023-05-16T01:13:33.236Z,0.10
2023-05-16T01:15:18.483Z,0.10
2023-05-16T01:16:26.192Z,0.10
2023-05-16T01:17:51.223Z,0.10
2023-05-16T01:18:58.871Z,0.14
2023-05-16T01:20:23.191Z,0.19
2023-05-16T01:21:30.183Z,0.15
2023-05-16T01:22:54.194Z,0.10
2023-05-16T01:24:38.185Z,0.10
2023-05-16T01:25:59.166Z,0.10
2023-05-16T01:26:54.200Z,0.10
2023-05-16T01:27:49.209Z,0.10
2023-05-16T01:28:44.168Z,0.10
2023-05-16T01:29:38.212Z,0.10
2023-05-16T01:30:33.179Z,0.14
2023-05-16T01:31:27.203Z,0.10
2023-05-16T01:32:21.200Z,0.10
2023-05-16T01:33:15.231Z,0.10
2023-05-16T01:34:09.156Z,0.10
2023-05-16T01:34:58.174Z,0.10
2023-05-16T01:35:32.252Z,0.10
2023-05-16T01:37:16.144Z,0.10
2023-05-16T01:38:27.223Z,0.10
2023-05-16T01:39:37.185Z,0.10
2023-05-16T01:40:24.182Z,0.10
2023-05-16T01:41:26.143Z,0.10
2023-05-16T01:42:28.164Z,0.10
2023-05-16T01:43:28.127Z,0.10
2023-05-16T01:44:36.137Z,0.10
2023-05-16T01:45:46.141Z,0.10
2023-05-16T01:46:48.187Z,0.10
2023-05-16T01:47:43.203Z,0.10
2023-05-16T01:48:44.152Z,0.10
2023-05-16T01:49:51.134Z,0.10
2023-05-16T01:50:50.161Z,0.10
2023-05-16T01:51:46.136Z,0.10
2023-05-16T01:52:54.159Z,0.10
2023-05-16T01:53:52.156Z,0.10
2023-05-16T01:54:47.144Z,0.09
2023-05-16T01:55:53.165Z,0.10
2023-05-16T01:56:47.118Z,0.10
2023-05-16T01:57:42.137Z,0.10
2023-05-16T01:58:40.864Z,0.10
2023-05-16T01:59:37.148Z,0.10
2023-05-16T02:00:28.297Z,0.10
2023-05-16T02:01:11.223Z,0.10
2023-05-16T02:01:51.482Z,0.10
2023-05-16T02:02:54.155Z,0.10
2023-05-16T02:03:49.133Z,0.10
2023-05-16T02:04:43.116Z,0.10
2023-05-16T02:05:37.106Z,0.10
2023-05-16T02:06:24.199Z,0.10
2023-05-16T02:07:04.297Z,0.10
2023-05-16T02:07:44.129Z,0.10
2023-05-16T02:08:26.378Z,0.10
2023-05-16T02:09:06.132Z,0.10
2023-05-16T02:09:46.213Z,0.10
2023-05-16T02:10:27.153Z,0.10
2023-05-16T02:11:07.247Z,0.10
2023-05-16T02:11:47.210Z,0.10
2023-05-16T02:12:28.222Z,0.10
2023-05-16T02:13:08.155Z,0.10
2023-05-16T02:13:48.227Z,0.10
2023-05-16T02:14:28.122Z,0.10
2023-05-16T02:15:08.227Z,0.10
2023-05-16T02:15:48.136Z,0.10
2023-05-16T02:16:29.254Z,0.10
2023-05-16T02:17:09.209Z,0.10
2023-05-16T02:17:49.686Z,0.10
2023-05-16T02:18:30.159Z,0.10
2023-05-16T02:19:10.801Z,0.10
2023-05-16T02:19:51.107Z,0.10
2023-05-16T02:20:32.195Z,0.10
2023-05-16T02:21:12.106Z,0.10
2023-05-16T02:21:52.217Z,0.10
2023-05-16T02:22:32.144Z,0.10
2023-05-16T02:23:12.842Z,0.10
2023-05-16T02:23:53.104Z,0.10
2023-05-16T02:24:34.224Z,0.10
2023-05-16T02:25:16.123Z,0.10
2023-05-16T02:25:56.230Z,0.10
2023-05-16T02:26:36.148Z,0.10
2023-05-16T02:27:16.224Z,0.10
2023-05-16T02:27:56.123Z,0.10
2023-05-16T02:28:37.213Z,0.16
2023-05-16T02:29:18.093Z,0.10
2023-05-16T02:29:58.210Z,0.10
2023-05-16T02:30:38.155Z,0.10
2023-05-16T02:31:18.236Z,0.10
2023-05-16T02:31:58.115Z,0.10
2023-05-16T02:32:39.431Z,0.10
2023-05-16T02:33:20.161Z,0.10
2023-05-16T02:34:00.194Z,0.10
2023-05-16T02:34:40.122Z,0.10
2023-05-16T02:35:20.386Z,0.10
2023-05-16T02:36:01.134Z,0.10
2023-05-16T02:36:42.476Z,0.06
2023-05-16T02:37:23.085Z,0.10
2023-05-16T02:38:04.192Z,0.10
2023-05-16T02:38:44.113Z,0.10
2023-05-16T02:39:24.197Z,0.10
2023-05-16T02:40:15.109Z,0.10
2023-05-16T02:40:49.281Z,0.10
2023-05-16T02:41:37.113Z,0.09
2023-05-16T02:42:13.246Z,0.10
2023-05-16T02:43:00.117Z,0.10
2023-05-16T02:43:34.173Z,0.10
2023-05-16T02:44:17.113Z,0.10
2023-05-16T02:44:57.182Z,0.10
2023-05-16T02:45:38.103Z,0.10
2023-05-16T02:46:33.272Z,0.10
2023-05-16T02:47:14.087Z,0.10
2023-05-16T02:47:54.255Z,0.10
2023-05-16T02:48:35.114Z,0.14
2023-05-16T02:49:15.217Z,0.15
2023-05-16T02:49:57.132Z,0.10
2023-05-16T02:50:37.613Z,0.10
2023-05-16T02:51:18.103Z,0.10
2023-05-16T02:51:58.189Z,0.10
2023-05-16T02:52:39.108Z,0.10
2023-05-16T02:53:19.223Z,0.10
2023-05-16T02:54:00.149Z,0.10
2023-05-16T02:54:40.201Z,0.11
2023-05-16T02:55:22.252Z,0.10
2023-05-16T02:56:06.790Z,0.10
2023-05-16T02:56:48.136Z,0.10
2023-05-16T02:57:29.297Z,0.10
2023-05-16T02:58:09.146Z,0.10
2023-05-16T02:58:50.544Z,0.10
2023-05-16T02:59:30.079Z,0.10
2023-05-16T03:00:11.550Z,0.10
2023-05-16T03:00:52.109Z,0.10
2023-05-16T03:01:32.265Z,0.10
2023-05-16T03:02:13.220Z,0.11
2023-05-16T03:02:53.211Z,0.13
2023-05-16T03:03:34.243Z,0.10
2023-05-16T03:04:14.511Z,0.10
2023-05-16T03:04:55.082Z,0.10
2023-05-16T03:05:35.461Z,0.10
2023-05-16T03:06:19.109Z,0.10
2023-05-16T03:06:59.253Z,0.10
2023-05-16T03:07:40.097Z,0.10
2023-05-16T03:08:20.209Z,0.10
2023-05-16T03:09:01.084Z,0.10
2023-05-16T03:09:41.188Z,0.10
2023-05-16T03:10:21.095Z,0.10
2023-05-16T03:11:01.203Z,0.06
2023-05-16T03:11:41.105Z,0.06
2023-05-16T03:12:21.187Z,0.10
2023-05-16T03:13:02.079Z,0.10
2023-05-16T03:13:42.520Z,0.10
2023-05-16T03:14:22.084Z,0.10
2023-05-16T03:15:02.235Z,0.10
2023-05-16T03:15:42.050Z,0.10
2023-05-16T03:16:22.224Z,0.10
2023-05-16T03:17:03.142Z,0.10
2023-05-16T03:17:43.314Z,0.10
2023-05-16T03:18:23.073Z,0.10
2023-05-16T03:19:03.398Z,0.10
2023-05-16T03:19:43.081Z,0.10
2023-05-16T03:20:26.152Z,0.10
2023-05-16T03:21:08.098Z,0.10
2023-05-16T03:21:48.155Z,0.10
2023-05-16T03:22:31.099Z,0.10
2023-05-16T03:23:12.196Z,0.09
2023-05-16T03:23:52.114Z,0.03
2023-05-16T03:24:32.205Z,0.10
2023-05-16T03:25:13.086Z,0.10
2023-05-16T03:25:53.177Z,0.10
2023-05-16T03:26:34.111Z,0.10
2023-05-16T03:27:15.402Z,0.08
2023-05-16T03:27:55.101Z,0.10
2023-05-16T03:28:35.610Z,0.10
2023-05-16T03:29:17.057Z,0.10
2023-05-16T03:29:57.159Z,0.10
2023-05-16T03:30:37.058Z,0.10
2023-05-16T03:31:17.229Z,0.10
2023-05-16T03:31:58.101Z,0.10
2023-05-16T03:32:39.246Z,0.08
2023-05-16T03:33:20.164Z,0.10
2023-05-16T03:34:00.297Z,0.10
2023-05-16T03:34:40.071Z,0.10
2023-05-16T03:35:20.283Z,0.10
2023-05-16T03:36:00.064Z,0.10
2023-05-16T03:36:40.131Z,0.10
2023-05-16T03:37:22.093Z,0.10
2023-05-16T03:38:02.285Z,0.10
2023-05-16T03:38:43.079Z,0.10
2023-05-16T03:39:24.166Z,0.10
2023-05-16T03:40:04.060Z,0.10
2023-05-16T03:40:44.162Z,0.10
2023-05-16T03:41:25.071Z,0.10
2023-05-16T03:42:05.747Z,0.10
2023-05-16T03:42:47.035Z,0.10
2023-05-16T03:43:27.309Z,0.10
2023-05-16T03:44:07.079Z,0.08
2023-05-16T03:44:47.127Z,0.10
2023-05-16T03:45:28.223Z,0.10
2023-05-16T03:46:09.211Z,0.10
2023-05-16T03:46:49.040Z,0.10
2023-05-16T03:47:31.286Z,0.10
2023-05-16T03:48:12.108Z,0.10
2023-05-16T03:48:52.098Z,0.10
2023-05-16T03:49:36.044Z,0.10
2023-05-16T03:50:16.443Z,0.10
2023-05-16T03:50:59.053Z,0.10
2023-05-16T03:51:39.159Z,0.10
2023-05-16T03:52:19.042Z,0.10
2023-05-16T03:52:59.432Z,0.10
2023-05-16T03:53:40.073Z,0.10
2023-05-16T03:54:20.238Z,0.11
2023-05-16T03:55:00.060Z,0.10
2023-05-16T03:55:40.187Z,0.10
2023-05-16T03:56:20.062Z,0.13
2023-05-16T03:57:00.185Z,0.10
2023-05-16T03:57:41.101Z,0.10
2023-05-16T03:58:24.179Z,0.10
2023-05-16T03:59:05.064Z,0.10
2023-05-16T03:59:45.103Z,0.10
2023-05-16T04:00:25.039Z,0.10
2023-05-16T04:01:05.115Z,0.10
2023-05-16T04:01:46.082Z,0.10
2023-05-16T04:02:49.092Z,0.10
2023-05-16T04:03:37.088Z,0.10
2023-05-16T04:04:10.826Z,0.10
2023-05-16T04:04:58.024Z,0.10
2023-05-16T04:05:38.086Z,0.10
2023-05-16T04:06:18.297Z,0.10
2023-05-16T04:06:58.030Z,0.10
2023-05-16T04:07:38.233Z,0.10
2023-05-16T04:08:18.016Z,0.10
2023-05-16T04:08:59.557Z,0.10
2023-05-16T04:09:40.042Z,0.16
2023-05-16T04:10:21.571Z,0.16
2023-05-16T04:11:02.037Z,0.13
2023-05-16T04:11:42.169Z,0.10
2023-05-16T04:12:22.049Z,0.10
2023-05-16T04:13:02.142Z,0.10
2023-05-16T04:13:43.050Z,0.10
2023-05-16T04:14:23.091Z,0.10
2023-05-16T04:15:03.068Z,0.10
2023-05-16T04:15:43.137Z,0.10
2023-05-16T04:16:23.072Z,0.10
2023-05-16T04:17:03.318Z,0.10
2023-05-16T04:17:45.039Z,0.10
2023-05-16T04:18:25.211Z,0.10
2023-05-16T04:19:06.230Z,0.10
2023-05-16T04:19:46.184Z,0.10
2023-05-16T04:20:26.048Z,0.10
2023-05-16T04:21:10.866Z,0.10
2023-05-16T04:21:52.159Z,0.04
2023-05-16T04:22:33.125Z,0.10
2023-05-16T04:23:13.074Z,0.10
2023-05-16T04:23:53.127Z,0.10
2023-05-16T04:24:35.053Z,0.10
2023-05-16T04:25:16.251Z,0.10
2023-05-16T04:25:57.104Z,0.10
2023-05-16T04:26:39.999Z,0.10
2023-05-16T04:27:20.056Z,0.10
2023-05-16T04:28:00.133Z,0.10
2023-05-16T04:28:41.090Z,0.10
2023-05-16T04:29:22.163Z,0.10
2023-05-16T04:30:03.062Z,0.10
2023-05-16T04:30:43.131Z,0.08
2023-05-16T04:31:24.049Z,0.09
2023-05-16T04:32:04.278Z,0.10
2023-05-16T04:32:45.062Z,0.10
2023-05-16T04:33:26.087Z,0.10
2023-05-16T04:34:06.002Z,0.10
2023-05-16T04:34:47.856Z,0.10
2023-05-16T04:35:29.120Z,0.10
2023-05-16T04:36:14.579Z,0.10
2023-05-16T04:36:55.008Z,0.10
2023-05-16T04:37:36.262Z,0.10
2023-05-16T04:38:16.121Z,0.10
2023-05-16T04:38:56.258Z,0.10
2023-05-16T04:39:36.053Z,0.10
2023-05-16T04:40:17.351Z,0.10
2023-05-16T04:41:00.972Z,0.10
2023-05-16T04:41:42.435Z,0.10
2023-05-16T04:42:24.008Z,0.10
2023-05-16T04:43:04.304Z,0.10
2023-05-16T04:43:45.126Z,0.10
2023-05-16T04:44:25.124Z,0.10
2023-05-16T04:45:05.075Z,0.10
2023-05-16T04:45:46.839Z,0.10
2023-05-16T04:46:27.094Z,0.10
2023-05-16T04:47:07.379Z,0.10
2023-05-16T04:47:48.093Z,0.10
2023-05-16T04:48:28.235Z,0.10
2023-05-16T04:49:08.145Z,0.10
2023-05-16T04:49:49.221Z,0.10
2023-05-16T04:50:28.994Z,0.06
2023-05-16T04:51:09.103Z,0.04
2023-05-16T04:51:50.031Z,0.10
2023-05-16T04:52:30.475Z,0.10
2023-05-16T04:53:11.004Z,0.10
2023-05-16T04:53:52.125Z,0.10
2023-05-16T04:54:33.065Z,0.10
2023-05-16T04:55:14.153Z,0.10
2023-05-16T04:55:54.037Z,0.10
2023-05-16T04:56:34.249Z,0.10
2023-05-16T04:57:14.001Z,0.10
2023-05-16T04:57:55.250Z,0.10
2023-05-16T04:58:35.042Z,0.10
2023-05-16T04:59:15.227Z,0.10
2023-05-16T04:59:55.024Z,0.10
2023-05-16T05:00:36.261Z,0.10
2023-05-16T05:01:16.103Z,0.10
2023-05-16T05:01:57.165Z,0.13
2023-05-16T05:02:37.022Z,0.16
2023-05-16T05:03:18.005Z,0.04
2023-05-16T05:03:58.066Z,0.04
2023-05-16T05:04:38.270Z,0.10
2023-05-16T05:05:19.165Z,0.10
2023-05-16T05:06:00.250Z,0.10
2023-05-16T05:06:39.990Z,0.10
2023-05-16T05:07:20.112Z,0.10
2023-05-16T05:08:01.026Z,0.10
2023-05-16T05:08:41.266Z,0.10
2023-05-16T05:09:21.104Z,0.10
2023-05-16T05:10:02.283Z,0.10
2023-05-16T05:10:43.052Z,0.10
2023-05-16T05:11:23.273Z,0.01
2023-05-16T05:12:03.426Z,0.09
2023-05-16T05:12:43.134Z,0.10
2023-05-16T05:13:22.987Z,0.10
2023-05-16T05:14:05.055Z,0.10
2023-05-16T05:14:45.082Z,0.10
2023-05-16T05:15:25.298Z,0.10
2023-05-16T05:16:06.074Z,0.10
2023-05-16T05:16:47.139Z,0.10
2023-05-16T05:17:28.200Z,0.10
2023-05-16T05:18:09.283Z,0.10
2023-05-16T05:18:52.039Z,0.10
2023-05-16T05:19:33.159Z,0.10
2023-05-16T05:20:15.435Z,0.10
2023-05-16T05:20:55.237Z,0.10
2023-05-16T05:21:37.045Z,0.06
2023-05-16T05:22:21.174Z,0.10
2023-05-16T05:23:00.988Z,0.10
2023-05-16T05:23:41.180Z,0.10
2023-05-16T05:24:20.973Z,0.10
2023-05-16T05:25:03.715Z,0.04
2023-05-16T05:25:51.046Z,0.10
2023-05-16T05:26:26.303Z,0.10
2023-05-16T05:27:07.102Z,0.10
2023-05-16T05:27:47.101Z,0.10
2023-05-16T05:28:28.055Z,0.10
2023-05-16T05:29:08.163Z,0.10
2023-05-16T05:29:49.028Z,0.10
2023-05-16T05:30:29.400Z,0.10
2023-05-16T05:31:14.609Z,0.10
2023-05-16T05:31:55.228Z,0.10
2023-05-16T05:32:39.233Z,0.10
2023-05-16T05:33:39.186Z,0.10
2023-05-16T05:34:33.044Z,0.10
2023-05-16T05:35:27.218Z,0.10
2023-05-16T05:36:26.091Z,0.10
2023-05-16T05:37:20.063Z,0.10
2023-05-16T05:38:04.353Z,0.10
2023-05-16T05:38:47.216Z,0.10
2023-05-16T05:39:28.046Z,0.10
2023-05-16T05:40:10.369Z,0.10
2023-05-16T05:40:53.002Z,0.10
2023-05-16T05:41:33.177Z,0.10
2023-05-16T05:43:23.062Z,0.15
2023-05-16T05:44:18.988Z,0.14
2023-05-16T05:45:12.963Z,0.20
2023-05-16T05:46:08.967Z,0.14
2023-05-16T05:47:04.099Z,0.05
2023-05-16T05:47:58.037Z,0.06
2023-05-16T05:48:45.194Z,0.10
2023-05-16T05:49:19.092Z,0.06
2023-05-16T05:50:06.949Z,0.06
2023-05-16T05:50:41.397Z,0.14
2023-05-16T05:51:27.929Z,0.16
2023-05-16T05:52:02.045Z,0.10
2023-05-16T05:52:49.987Z,0.10
2023-05-16T05:53:24.062Z,0.10
2023-05-16T05:54:04.970Z,0.10
2023-05-16T05:54:46.053Z,0.10
2023-05-16T05:55:48.995Z,0.10
2023-05-16T05:56:29.099Z,0.10
2023-05-16T05:57:08.951Z,0.10
2023-05-16T05:57:49.037Z,0.10
2023-05-16T05:58:29.959Z,0.10
2023-05-16T05:59:17.047Z,0.10
2023-05-16T06:00:12.020Z,0.14
2023-05-16T06:01:08.959Z,0.17
2023-05-16T06:03:06.991Z,0.10
2023-05-16T06:04:02.174Z,0.10
2023-05-16T06:04:42.999Z,0.10
2023-05-16T06:05:23.820Z,0.10
2023-05-16T06:06:06.131Z,0.10
2023-05-16T06:06:49.116Z,0.10
2023-05-16T06:07:29.958Z,0.10
2023-05-16T06:08:10.849Z,0.14
2023-05-16T06:08:50.951Z,0.16
2023-05-16T06:09:31.143Z,0.10
2023-05-16T06:10:13.003Z,0.10
2023-05-16T06:10:54.464Z,0.10
2023-05-16T06:11:35.965Z,0.10
2023-05-16T06:12:16.965Z,0.13
2023-05-16T06:12:57.951Z,0.16
2023-05-16T06:13:38.056Z,0.10
2023-05-16T06:14:18.934Z,0.13
2023-05-16T06:15:01.272Z,0.16
2023-05-16T06:15:42.108Z,0.10
2023-05-16T06:16:22.091Z,0.10
2023-05-16T06:17:02.046Z,0.10
2023-05-16T06:17:42.265Z,0.14
2023-05-16T06:18:22.039Z,0.16
2023-05-16T06:19:02.140Z,0.10
2023-05-16T06:19:42.952Z,0.10
2023-05-16T06:20:23.039Z,0.10
2023-05-16T06:21:03.013Z,0.10
2023-05-16T06:21:43.396Z,0.10
2023-05-16T06:22:22.920Z,0.10
2023-05-16T06:23:19.308Z,0.14
2023-05-16T06:24:15.960Z,0.16
2023-05-16T06:25:09.920Z,0.13
2023-05-16T06:26:04.968Z,0.14
2023-05-16T06:26:58.926Z,0.16
2023-05-16T06:27:52.906Z,0.10
2023-05-16T06:28:46.944Z,0.10
2023-05-16T06:29:40.967Z,0.10
2023-05-16T06:30:35.049Z,0.10
2023-05-16T06:31:22.148Z,0.10
2023-05-16T06:31:56.115Z,0.10
2023-05-16T06:32:43.995Z,0.13
2023-05-16T06:33:18.137Z,0.10
2023-05-16T06:34:04.967Z,0.10
2023-05-16T06:34:39.064Z,0.10
2023-05-16T06:35:26.092Z,0.10
2023-05-16T06:36:00.133Z,0.10
2023-05-16T06:36:46.975Z,0.10
2023-05-16T06:37:21.244Z,0.09
2023-05-16T06:38:08.024Z,0.10
2023-05-16T06:38:42.026Z,0.10
2023-05-16T06:39:28.967Z,0.10
2023-05-16T06:40:03.345Z,0.10
2023-05-16T06:40:49.912Z,0.14
2023-05-16T06:41:29.252Z,0.16
2023-05-16T06:42:09.035Z,0.10
2023-05-16T06:42:49.117Z,0.10
2023-05-16T06:43:29.949Z,0.14
2023-05-16T06:44:10.043Z,0.16
2023-05-16T06:44:49.965Z,0.10
2023-05-16T06:45:31.172Z,0.10
2023-05-16T06:46:12.054Z,0.10
2023-05-16T06:46:52.136Z,0.10
2023-05-16T06:47:33.083Z,0.10
2023-05-16T06:48:15.721Z,0.10
2023-05-16T06:48:55.963Z,0.10
2023-05-16T06:49:36.237Z,0.10
2023-05-16T06:50:19.935Z,0.10
2023-05-16T06:51:00.061Z,0.10
2023-05-16T06:51:41.975Z,0.10
2023-05-16T06:52:22.101Z,0.10
2023-05-16T06:53:02.021Z,0.10
2023-05-16T06:53:42.181Z,0.10
2023-05-16T06:54:22.953Z,0.10
2023-05-16T06:55:03.060Z,0.10
2023-05-16T06:55:43.964Z,0.13
2023-05-16T06:56:25.271Z,0.11
2023-05-16T06:57:04.924Z,0.13
2023-05-16T06:57:45.035Z,0.10
2023-05-16T06:58:24.963Z,0.10
2023-05-16T06:59:05.057Z,0.14
2023-05-16T06:59:45.990Z,0.16
2023-05-16T07:00:30.203Z,0.10
2023-05-16T07:01:09.976Z,0.10
2023-05-16T07:01:50.139Z,0.10
2023-05-16T07:02:30.048Z,0.10
2023-05-16T07:03:10.102Z,0.10
2023-05-16T07:03:51.095Z,0.10
2023-05-16T07:04:31.197Z,0.10
2023-05-16T07:05:11.991Z,0.10
2023-05-16T07:05:53.043Z,0.10
2023-05-16T07:06:33.928Z,0.04
2023-05-16T07:07:14.196Z,0.10
2023-05-16T07:07:55.940Z,0.10
2023-05-16T07:08:37.058Z,0.10
2023-05-16T07:09:17.986Z,0.11
2023-05-16T07:09:58.042Z,0.10
2023-05-16T07:10:38.177Z,0.10
2023-05-16T07:11:18.122Z,0.10
2023-05-16T07:11:58.932Z,0.10
2023-05-16T07:12:39.206Z,0.10
2023-05-16T07:13:19.967Z,0.10
2023-05-16T07:14:00.016Z,0.10
2023-05-16T07:14:42.057Z,0.10
2023-05-16T07:15:22.126Z,0.10
2023-05-16T07:16:04.054Z,0.10
2023-05-16T07:16:44.423Z,0.10
2023-05-16T07:17:26.005Z,0.20
2023-05-16T07:18:06.124Z,0.20
2023-05-16T07:18:47.026Z,0.10
2023-05-16T07:19:27.175Z,0.16
2023-05-16T07:20:07.963Z,0.15
2023-05-16T07:20:48.487Z,0.10
2023-05-16T07:21:31.955Z,0.10
2023-05-16T07:22:13.441Z,0.10
2023-05-16T07:22:53.898Z,0.10
2023-05-16T07:23:34.032Z,0.10
2023-05-16T07:24:14.921Z,0.14
2023-05-16T07:24:57.192Z,0.19
2023-05-16T07:25:37.945Z,0.16
2023-05-16T07:26:20.457Z,0.14
2023-05-16T07:27:00.908Z,0.10
2023-05-16T07:27:45.171Z,0.10
2023-05-16T07:28:25.940Z,0.14
2023-05-16T07:29:05.977Z,0.11
2023-05-16T07:29:47.897Z,0.10
2023-05-16T07:30:28.050Z,0.10
2023-05-16T07:31:07.929Z,0.10
2023-05-16T07:31:48.179Z,0.10
2023-05-16T07:32:28.975Z,0.10
2023-05-16T07:33:09.135Z,0.10
2023-05-16T07:33:49.950Z,0.10
2023-05-16T07:34:30.002Z,0.11
2023-05-16T07:35:10.937Z,0.10
2023-05-16T07:36:15.531Z,0.10
2023-05-16T07:37:07.981Z,0.14
2023-05-16T07:37:48.164Z,0.16
2023-05-16T07:38:33.667Z,0.10
2023-05-16T07:39:17.572Z,0.10
2023-05-16T07:39:58.013Z,0.13
2023-05-16T07:40:41.096Z,0.10
2023-05-16T07:41:21.950Z,0.10
2023-05-16T07:42:02.038Z,0.10
2023-05-16T07:42:48.158Z,0.10
2023-05-16T07:43:30.351Z,0.14
2023-05-16T07:44:10.928Z,0.20
2023-05-16T07:44:55.046Z,0.14
2023-05-16T07:45:41.020Z,0.13
2023-05-16T07:46:21.090Z,0.15
2023-05-16T07:47:01.868Z,0.10
2023-05-16T07:47:45.017Z,0.10
2023-05-16T07:48:25.077Z,0.10
2023-05-16T07:49:04.985Z,0.10
2023-05-16T07:49:45.906Z,0.10
2023-05-16T07:50:25.988Z,0.13
2023-05-16T07:51:08.933Z,0.20
2023-05-16T07:51:49.011Z,0.10
2023-05-16T07:52:28.938Z,0.10
2023-05-16T07:53:09.617Z,0.10
2023-05-16T07:53:50.916Z,0.10
2023-05-16T07:54:31.498Z,0.10
2023-05-16T07:55:12.855Z,0.10
2023-05-16T07:55:53.293Z,0.10
2023-05-16T07:56:32.934Z,0.10
2023-05-16T07:57:13.128Z,0.10
2023-05-16T07:58:04.953Z,0.10
2023-05-16T07:58:46.159Z,0.10
2023-05-16T07:59:25.903Z,0.10
2023-05-16T08:00:10.136Z,0.10
2023-05-16T08:00:50.076Z,0.20
2023-05-16T08:01:33.160Z,0.16
2023-05-16T08:03:14.969Z,0.10
2023-05-16T08:03:56.504Z,0.10
2023-05-16T08:04:44.969Z,0.15
2023-05-16T08:05:22.074Z,0.10
2023-05-16T08:06:09.910Z,0.10
2023-05-16T08:06:46.997Z,0.14
2023-05-16T08:07:36.896Z,0.16
2023-05-16T08:08:11.004Z,0.10
2023-05-16T08:09:01.040Z,0.10
2023-05-16T08:09:35.024Z,0.10
2023-05-16T08:10:18.781Z,0.10
2023-05-16T08:11:01.953Z,0.13
2023-05-16T08:11:46.863Z,0.16
2023-05-16T08:12:41.970Z,0.14
2023-05-16T08:13:21.919Z,0.11
2023-05-16T08:14:05.177Z,0.10
2023-05-16T08:14:45.888Z,0.10
2023-05-16T08:15:35.296Z,0.10
2023-05-16T08:16:28.949Z,0.10
2023-05-16T08:17:25.740Z,0.10
2023-05-16T08:18:31.906Z,0.10
2023-05-16T08:19:26.010Z,0.11
2023-05-16T08:20:23.626Z,0.14
2023-05-16T08:21:04.876Z,0.20
2023-05-16T08:21:47.811Z,0.16
2023-05-16T08:22:27.848Z,0.10
2023-05-16T08:23:10.173Z,0.10
2023-05-16T08:23:50.939Z,0.15
2023-05-16T08:24:37.355Z,0.10
2023-05-16T08:25:18.876Z,0.15
2023-05-16T08:26:01.763Z,0.10
2023-05-16T08:26:43.902Z,0.10
2023-05-16T08:27:26.700Z,0.10
2023-05-16T08:28:08.859Z,0.10
2023-05-16T08:28:51.679Z,0.10
2023-05-16T08:29:32.852Z,0.10
2023-05-16T08:30:16.025Z,0.13
2023-05-16T08:30:55.908Z,0.14
2023-05-16T08:31:36.080Z,0.10
2023-05-16T08:32:18.902Z,0.10
2023-05-16T08:32:59.232Z,0.10
2023-05-16T08:33:41.857Z,0.14
2023-05-16T08:34:22.075Z,0.11
2023-05-16T08:35:02.852Z,0.10
2023-05-16T08:35:43.108Z,0.11
2023-05-16T08:36:27.122Z,0.10
2023-05-16T08:37:07.015Z,0.13
2023-05-16T08:37:49.967Z,0.20
2023-05-16T08:38:30.052Z,0.16
2023-05-16T08:39:11.869Z,0.10
2023-05-16T08:39:52.034Z,0.10
2023-05-16T08:40:33.903Z,0.10
2023-05-16T08:41:13.959Z,0.10
2023-05-16T08:41:54.883Z,0.10
2023-05-16T08:42:35.280Z,0.13
2023-05-16T08:43:17.968Z,0.10
2023-05-16T08:43:57.933Z,0.13
2023-05-16T08:44:41.882Z,0.16
2023-05-16T08:45:23.288Z,0.20
2023-05-16T08:46:05.866Z,0.16
2023-05-16T08:46:49.248Z,0.14
2023-05-16T08:47:34.893Z,0.20
2023-05-16T08:48:24.960Z,0.16
2023-05-16T08:49:18.850Z,0.15
2023-05-16T08:50:16.068Z,0.16
2023-05-16T08:51:09.860Z,0.15
2023-05-16T08:52:05.881Z,0.17
2023-05-16T08:53:04.834Z,0.16
2023-05-16T08:53:53.606Z,0.10
2023-05-16T08:54:34.133Z,0.14
2023-05-16T08:55:15.896Z,0.16
2023-05-16T08:55:56.964Z,0.14
2023-05-16T08:56:37.882Z,0.20
2023-05-16T08:57:21.052Z,0.19
2023-05-16T08:58:04.896Z,0.17
2023-05-16T08:58:45.008Z,0.14
2023-05-16T08:59:25.844Z,0.20
2023-05-16T09:00:11.769Z,0.20
2023-05-16T09:01:16.901Z,0.16
2023-05-16T09:02:11.819Z,0.14
2023-05-16T09:03:06.948Z,0.16
2023-05-16T09:04:02.160Z,0.10
2023-05-16T09:04:49.872Z,0.10
2023-05-16T09:05:24.288Z,0.13
2023-05-16T09:06:13.856Z,0.14
2023-05-16T09:06:48.313Z,0.20
2023-05-16T09:07:36.829Z,0.20
2023-05-16T09:08:10.941Z,0.20
2023-05-16T09:08:58.858Z,0.20
2023-05-16T09:09:32.971Z,0.16
2023-05-16T09:10:14.862Z,0.10
2023-05-16T09:10:57.954Z,0.20
2023-05-16T09:11:37.820Z,0.20
2023-05-16T09:12:17.920Z,0.20
2023-05-16T09:12:57.838Z,0.20
2023-05-16T09:13:37.935Z,0.19
2023-05-16T09:14:18.847Z,0.13
2023-05-16T09:14:58.920Z,0.20
2023-05-16T09:15:40.889Z,0.20
2023-05-16T09:16:27.926Z,0.20
2023-05-16T09:17:18.465Z,0.14
2023-05-16T09:18:01.101Z,0.20
2023-05-16T09:18:41.951Z,0.20
2023-05-16T09:19:21.987Z,0.17
2023-05-16T09:20:04.803Z,0.17
2023-05-16T09:21:00.214Z,0.14
2023-05-16T09:21:53.823Z,0.16
2023-05-16T09:22:47.839Z,0.10
2023-05-16T09:23:41.801Z,0.16
2023-05-16T09:24:39.888Z,0.20
2023-05-16T09:25:36.046Z,0.20
2023-05-16T09:26:23.835Z,0.20
2023-05-16T09:26:59.190Z,0.20
2023-05-16T09:27:46.837Z,0.10
2023-05-16T09:28:20.945Z,0.16
2023-05-16T09:29:08.869Z,0.20
2023-05-16T09:29:42.966Z,0.16
2023-05-16T09:30:35.858Z,0.14
2023-05-16T09:31:09.932Z,0.20
2023-05-16T09:31:49.878Z,0.20
2023-05-16T09:32:30.959Z,0.20
2023-05-16T09:33:13.845Z,0.20
2023-05-16T09:33:55.168Z,0.20
2023-05-16T09:34:35.821Z,0.20
2023-05-16T09:35:39.215Z,0.20
2023-05-16T09:36:22.857Z,0.20
2023-05-16T09:37:09.854Z,0.20
2023-05-16T09:38:04.803Z,0.20
2023-05-16T09:38:58.821Z,0.16
2023-05-16T09:40:03.817Z,0.20
2023-05-16T09:40:58.799Z,0.20
2023-05-16T09:41:52.827Z,0.13
2023-05-16T09:42:33.861Z,0.20
2023-05-16T09:43:14.915Z,0.20